createdAt,value
2023-04-07T00:02:48.906Z,5.01
2023-04-07T00:05:53.757Z,5.04
2023-04-07T00:08:57.947Z,5.11
2023-04-07T00:12:02.768Z,5.06
2023-04-07T00:15:08.021Z,5.05
2023-04-07T00:18:12.420Z,5.06
2023-04-07T00:21:16.823Z,5.07
2023-04-07T00:24:33.377Z,5.03
2023-04-07T00:27:38.770Z,4.97
2023-04-07T00:30:43.216Z,4.97
2023-04-07T00:33:49.402Z,4.90
2023-04-07T00:36:53.715Z,4.85
2023-04-07T00:39:59.246Z,4.85
2023-04-07T00:43:03.606Z,4.85
2023-04-07T00:46:07.921Z,4.87
2023-04-07T00:49:13.303Z,4.83
2023-04-07T00:52:18.880Z,4.76
2023-04-07T00:55:23.712Z,4.68
2023-04-07T00:58:28.080Z,4.68
2023-04-07T01:02:02.148Z,4.63
2023-04-07T01:05:24.664Z,4.59
2023-04-07T01:08:47.411Z,4.52
2023-04-07T01:12:09.660Z,4.46
2023-04-07T01:15:15.825Z,4.45
2023-04-07T01:18:31.675Z,4.49
2023-04-07T01:21:38.002Z,4.51
2023-04-07T01:25:00.656Z,4.54
2023-04-07T01:28:56.340Z,4.52
2023-04-07T01:32:04.050Z,4.43
2023-04-07T01:35:13.970Z,4.42
2023-04-07T01:38:18.903Z,4.38
2023-04-07T01:41:24.533Z,4.39
2023-04-07T01:44:30.240Z,4.46
2023-04-07T01:47:37.689Z,4.47
2023-04-07T01:50:44.165Z,4.43
2023-04-07T01:53:49.660Z,4.38
2023-04-07T01:56:54.085Z,4.33
2023-04-07T01:59:58.390Z,4.36
2023-04-07T02:03:23.468Z,4.32
2023-04-07T02:06:37.684Z,4.30
2023-04-07T02:09:43.311Z,4.25
2023-04-07T02:12:48.643Z,4.23
2023-04-07T02:15:55.932Z,4.25
2023-04-07T02:19:00.167Z,4.13
2023-04-07T02:22:06.959Z,4.10
2023-04-07T02:25:29.786Z,4.06
2023-04-07T02:28:34.199Z,4.04
2023-04-07T02:31:38.869Z,3.98
2023-04-07T02:34:42.958Z,4.02
2023-04-07T02:37:47.618Z,4.04
2023-04-07T02:40:52.029Z,3.98
2023-04-07T02:43:56.734Z,3.93
2023-04-07T02:47:02.119Z,3.92
2023-04-07T02:50:07.467Z,3.88
2023-04-07T02:53:11.936Z,3.85
2023-04-07T02:56:16.495Z,3.79
2023-04-07T02:59:21.055Z,3.80
2023-04-07T03:02:25.710Z,3.76
2023-04-07T03:05:30.294Z,3.80
2023-04-07T03:08:34.751Z,3.77
2023-04-07T03:11:38.981Z,3.74
2023-04-07T03:14:42.918Z,3.72
2023-04-07T03:17:47.485Z,3.70
2023-04-07T03:20:53.005Z,3.74
2023-04-07T03:23:57.573Z,3.73
2023-04-07T03:27:02.210Z,3.72
2023-04-07T03:30:07.867Z,3.72
2023-04-07T03:33:12.358Z,3.71
2023-04-07T03:36:18.627Z,3.70
2023-04-07T03:39:23.251Z,3.68
2023-04-07T03:42:27.619Z,3.65
2023-04-07T03:45:33.906Z,3.69
2023-04-07T03:48:37.889Z,3.72
2023-04-07T03:51:42.099Z,3.71
2023-04-07T03:54:46.444Z,3.65
2023-04-07T03:57:51.173Z,3.58
2023-04-07T04:00:55.633Z,3.58
2023-04-07T04:04:00.076Z,3.50
2023-04-07T04:07:04.738Z,3.45
2023-04-07T04:10:09.614Z,3.38
2023-04-07T04:13:14.044Z,3.32
2023-04-07T04:16:18.580Z,3.29
2023-04-07T04:19:23.182Z,3.29
2023-04-07T04:22:27.459Z,3.35
2023-04-07T04:25:31.845Z,3.35
2023-04-07T04:28:36.040Z,3.31
2023-04-07T04:31:40.300Z,3.28
2023-04-07T04:34:44.570Z,3.26
2023-04-07T04:37:49.042Z,3.25
2023-04-07T04:40:53.513Z,3.27
2023-04-07T04:43:57.832Z,3.27
2023-04-07T04:47:02.315Z,3.23
2023-04-07T04:50:07.828Z,3.21
2023-04-07T04:53:12.148Z,3.20
2023-04-07T04:56:16.351Z,3.30
2023-04-07T04:59:20.838Z,3.29
2023-04-07T05:02:25.123Z,3.31
2023-04-07T05:05:29.792Z,3.35
2023-04-07T05:08:34.120Z,3.34
2023-04-07T05:11:38.526Z,3.39
2023-04-07T05:14:43.263Z,3.39
2023-04-07T05:17:50.638Z,3.43
2023-04-07T05:20:55.487Z,3.45
2023-04-07T05:23:59.799Z,3.45
2023-04-07T05:27:04.074Z,3.51
2023-04-07T05:30:08.810Z,3.50
2023-04-07T05:33:13.324Z,3.46
2023-04-07T05:36:18.011Z,3.50
2023-04-07T05:39:22.923Z,3.56
2023-04-07T05:42:27.078Z,3.64
2023-04-07T05:45:31.317Z,3.64
2023-04-07T05:48:35.841Z,3.67
2023-04-07T05:51:40.679Z,3.73
2023-04-07T05:54:45.116Z,3.79
2023-04-07T05:57:49.585Z,3.83
2023-04-07T06:00:53.696Z,3.85
2023-04-07T06:03:59.036Z,3.94
2023-04-07T06:07:04.271Z,4.00
2023-04-07T06:10:09.034Z,4.02
2023-04-07T06:13:13.280Z,4.02
2023-04-07T06:16:18.339Z,4.07
2023-04-07T06:19:23.965Z,4.20
2023-04-07T06:22:28.307Z,4.33
2023-04-07T06:25:32.930Z,4.39
2023-04-07T06:28:37.908Z,4.43
2023-04-07T06:31:42.460Z,4.42
2023-04-07T06:34:47.203Z,4.48
2023-04-07T06:37:51.609Z,4.59
2023-04-07T06:40:55.838Z,4.68
2023-04-07T06:44:00.918Z,4.77
2023-04-07T06:47:05.229Z,4.80
2023-04-07T06:50:09.811Z,4.91
2023-04-07T06:53:14.288Z,4.96
2023-04-07T06:56:18.650Z,5.09
2023-04-07T06:59:23.184Z,5.16
2023-04-07T07:02:27.838Z,5.30
2023-04-07T07:05:32.277Z,5.42
2023-04-07T07:08:36.472Z,5.44
2023-04-07T07:11:41.163Z,5.58
2023-04-07T07:14:45.863Z,5.67
2023-04-07T07:17:50.193Z,5.73
2023-04-07T07:20:54.652Z,5.88
2023-04-07T07:23:58.918Z,5.98
2023-04-07T07:27:03.537Z,6.08
2023-04-07T07:30:08.956Z,6.14
2023-04-07T07:33:13.707Z,6.24
2023-04-07T07:36:18.184Z,6.36
2023-04-07T07:39:22.577Z,6.52
2023-04-07T07:42:27.085Z,6.63
2023-04-07T07:45:31.122Z,6.66
2023-04-07T07:48:35.527Z,6.72
2023-04-07T07:51:39.805Z,6.88
2023-04-07T07:54:44.602Z,6.98
2023-04-07T07:57:48.991Z,7.13
2023-04-07T08:00:53.222Z,7.13
2023-04-07T08:03:57.784Z,7.31
2023-04-07T08:07:03.482Z,7.40
2023-04-07T08:10:08.391Z,7.55
2023-04-07T08:13:12.884Z,7.64
2023-04-07T08:16:22.170Z,7.71
2023-04-07T08:19:26.701Z,7.76
2023-04-07T08:22:31.303Z,7.93
2023-04-07T08:25:36.297Z,7.97
2023-04-07T08:28:40.935Z,8.13
2023-04-07T08:31:45.087Z,8.13
2023-04-07T08:34:49.718Z,8.23
2023-04-07T08:37:54.232Z,8.40
2023-04-07T08:41:10.245Z,8.42
2023-04-07T08:44:15.864Z,8.58
2023-04-07T08:47:21.794Z,8.81
2023-04-07T08:50:30.559Z,8.82
2023-04-07T08:53:52.036Z,8.84
2023-04-07T08:56:56.627Z,8.92
2023-04-07T09:00:06.177Z,8.97
2023-04-07T09:03:11.985Z,9.01
2023-04-07T09:06:16.980Z,9.05
2023-04-07T09:09:21.785Z,8.98
2023-04-07T09:12:28.923Z,9.12
2023-04-07T09:15:33.613Z,9.16
2023-04-07T09:18:38.404Z,9.24
2023-04-07T09:21:51.389Z,9.28
2023-04-07T09:25:17.482Z,9.29
2023-04-07T09:28:22.970Z,9.47
2023-04-07T09:31:52.095Z,9.58
2023-04-07T09:35:00.459Z,9.66
2023-04-07T09:38:07.891Z,9.74
2023-04-07T09:41:19.806Z,9.84
2023-04-07T09:44:25.605Z,9.98
2023-04-07T09:47:32.819Z,10.03
2023-04-07T09:50:41.535Z,10.05
2023-04-07T09:53:49.948Z,10.17
2023-04-07T09:56:55.769Z,10.28
2023-04-07T10:00:00.193Z,10.40
2023-04-07T10:03:09.504Z,10.52
2023-04-07T10:06:14.675Z,10.60
2023-04-07T10:09:19.239Z,10.71
2023-04-07T10:12:24.690Z,10.84
2023-04-07T10:15:30.362Z,10.90
2023-04-07T10:18:37.000Z,10.91
2023-04-07T10:21:42.921Z,10.93
2023-04-07T10:25:11.188Z,10.87
2023-04-07T10:28:16.977Z,10.97
2023-04-07T10:31:23.044Z,11.01
2023-04-07T10:34:55.770Z,11.18
2023-04-07T10:38:14.222Z,11.25
2023-04-07T10:41:38.853Z,11.28
2023-04-07T10:44:43.178Z,11.45
2023-04-07T10:48:02.677Z,11.76
2023-04-07T10:51:08.431Z,11.94
2023-04-07T10:54:22.461Z,12.10
2023-04-07T10:57:27.587Z,12.11
2023-04-07T11:00:31.720Z,12.08
2023-04-07T11:03:42.253Z,11.84
2023-04-07T11:06:48.363Z,11.64
2023-04-07T11:10:11.323Z,11.77
2023-04-07T11:13:15.637Z,12.02
2023-04-07T11:16:36.644Z,12.41
2023-04-07T11:19:54.346Z,12.45
2023-04-07T11:23:02.906Z,12.27
2023-04-07T11:26:09.334Z,12.13
2023-04-07T11:29:13.812Z,11.86
2023-04-07T11:32:29.609Z,11.67
2023-04-07T11:35:35.449Z,11.78
2023-04-07T11:38:40.391Z,11.71
2023-04-07T11:41:49.968Z,11.61
2023-04-07T11:44:55.399Z,11.52
2023-04-07T11:47:59.736Z,11.48
2023-04-07T11:51:05.478Z,11.45
2023-04-07T11:54:11.119Z,11.60
2023-04-07T11:57:28.364Z,11.69
2023-04-07T12:00:32.847Z,11.85
2023-04-07T12:03:37.981Z,12.00
2023-04-07T12:06:43.265Z,12.06
2023-04-07T12:09:47.825Z,12.08
2023-04-07T12:12:52.202Z,12.18
2023-04-07T12:16:00.868Z,12.38
2023-04-07T12:19:05.626Z,12.61
2023-04-07T12:22:10.227Z,12.51
2023-04-07T12:25:14.375Z,12.67
2023-04-07T12:28:18.812Z,12.95
2023-04-07T12:31:23.283Z,13.15
2023-04-07T12:34:27.859Z,13.40
2023-04-07T12:37:33.100Z,13.72
2023-04-07T12:40:38.353Z,14.18
2023-04-07T12:43:43.661Z,14.19
2023-04-07T12:46:48.876Z,14.67
2023-04-07T12:49:53.195Z,14.85
2023-04-07T12:53:03.546Z,14.68
2023-04-07T12:56:08.132Z,14.72
2023-04-07T12:59:13.004Z,14.98
2023-04-07T13:02:19.157Z,15.11
2023-04-07T13:05:23.924Z,15.12
2023-04-07T13:08:29.253Z,15.25
2023-04-07T13:11:33.334Z,15.47
2023-04-07T13:14:52.950Z,15.79
2023-04-07T13:18:04.230Z,15.55
2023-04-07T13:21:42.989Z,15.16
2023-04-07T13:24:34.441Z,15.26
2023-04-07T13:27:39.200Z,15.40
2023-04-07T13:30:43.987Z,15.34
2023-04-07T13:33:48.677Z,15.55
2023-04-07T13:36:53.237Z,15.54
2023-04-07T13:39:57.214Z,15.46
2023-04-07T13:43:01.828Z,15.66
2023-04-07T13:46:11.730Z,15.69
2023-04-07T13:49:22.485Z,15.12
2023-04-07T13:52:29.879Z,15.00
2023-04-07T13:55:34.049Z,14.91
2023-04-07T13:58:38.179Z,14.65
2023-04-07T14:01:42.860Z,14.41
2023-04-07T14:04:47.563Z,14.50
2023-04-07T14:07:51.961Z,14.44
2023-04-07T14:10:56.212Z,14.19
2023-04-07T14:14:01.465Z,14.06
2023-04-07T14:17:06.152Z,13.89
2023-04-07T14:20:10.841Z,13.78
2023-04-07T14:23:23.244Z,13.61
2023-04-07T14:26:34.184Z,13.72
2023-04-07T14:29:38.560Z,14.01
2023-04-07T14:32:43.274Z,14.28
2023-04-07T14:35:48.414Z,14.61
2023-04-07T14:38:52.737Z,14.78
2023-04-07T14:41:57.006Z,15.02
2023-04-07T14:45:01.818Z,15.03
2023-04-07T14:48:06.776Z,14.90
2023-04-07T14:51:12.892Z,14.79
2023-04-07T14:54:17.988Z,15.14
2023-04-07T14:57:22.492Z,15.29
2023-04-07T15:00:28.704Z,15.15
2023-04-07T15:03:34.865Z,15.37
2023-04-07T15:06:43.197Z,15.59
2023-04-07T15:09:48.061Z,15.23
2023-04-07T15:12:52.801Z,15.26
2023-04-07T15:16:11.522Z,15.00
2023-04-07T15:19:16.874Z,14.66
2023-04-07T15:22:21.274Z,14.36
2023-04-07T15:25:25.776Z,13.85
2023-04-07T15:28:30.298Z,13.74
2023-04-07T15:31:34.613Z,14.05
2023-04-07T15:34:39.295Z,13.85
2023-04-07T15:37:44.381Z,13.31
2023-04-07T15:40:48.319Z,13.32
2023-04-07T15:43:52.893Z,12.96
2023-04-07T15:46:57.296Z,12.44
2023-04-07T15:50:01.903Z,12.00
2023-04-07T15:53:07.011Z,11.38
2023-04-07T15:56:13.749Z,11.51
2023-04-07T15:59:18.484Z,11.80
2023-04-07T16:02:22.975Z,11.72
2023-04-07T16:05:27.376Z,11.34
2023-04-07T16:08:31.648Z,11.00
2023-04-07T16:11:36.208Z,11.06
2023-04-07T16:14:40.458Z,10.92
2023-04-07T16:17:48.193Z,10.51
2023-04-07T16:20:52.670Z,10.38
2023-04-07T16:23:57.019Z,10.00
2023-04-07T16:27:03.989Z,9.77
2023-04-07T16:30:09.465Z,9.46
2023-04-07T16:33:13.988Z,9.45
2023-04-07T16:36:18.314Z,9.11
2023-04-07T16:39:24.792Z,8.98
2023-04-07T16:42:30.081Z,8.83
2023-04-07T16:45:34.472Z,8.78
2023-04-07T16:48:38.930Z,8.74
2023-04-07T16:51:43.078Z,8.70
2023-04-07T16:54:47.911Z,8.70
2023-04-07T16:57:51.985Z,8.58
2023-04-07T17:00:56.221Z,8.46
2023-04-07T17:04:00.741Z,8.42
2023-04-07T17:07:06.497Z,8.38
2023-04-07T17:10:11.183Z,8.29
2023-04-07T17:13:15.276Z,8.28
2023-04-07T17:16:19.632Z,8.27
2023-04-07T17:19:24.060Z,8.17
2023-04-07T17:22:28.307Z,8.15
2023-04-07T17:25:32.810Z,8.11
2023-04-07T17:28:37.124Z,8.03
2023-04-07T17:31:41.888Z,7.91
2023-04-07T17:34:46.358Z,7.90
2023-04-07T17:37:51.972Z,7.82
2023-04-07T17:41:01.729Z,7.79
2023-04-07T17:44:08.439Z,7.68
2023-04-07T17:47:13.094Z,7.68
2023-04-07T17:50:18.068Z,7.60
2023-04-07T17:53:22.421Z,7.59
2023-04-07T17:56:26.984Z,7.58
2023-04-07T17:59:31.100Z,7.42
2023-04-07T18:02:36.620Z,7.44
2023-04-07T18:05:44.982Z,7.40
2023-04-07T18:08:49.695Z,7.30
2023-04-07T18:11:54.342Z,7.21
2023-04-07T18:14:58.716Z,7.13
2023-04-07T18:18:03.036Z,7.09
2023-04-07T18:21:07.846Z,7.04
2023-04-07T18:24:12.166Z,7.01
2023-04-07T18:27:16.638Z,7.06
2023-04-07T18:30:21.843Z,7.01
2023-04-07T18:33:26.382Z,7.03
2023-04-07T18:36:30.833Z,7.03
2023-04-07T18:39:35.524Z,7.06
2023-04-07T18:42:40.292Z,6.97
2023-04-07T18:45:44.690Z,6.86
2023-04-07T18:48:49.172Z,6.78
2023-04-07T18:51:53.425Z,6.75
2023-04-07T18:54:57.927Z,6.75
2023-04-07T18:58:03.866Z,6.68
2023-04-07T19:01:08.938Z,6.64
2023-04-07T19:04:15.073Z,6.56
2023-04-07T19:07:19.156Z,6.57
2023-04-07T19:10:26.005Z,6.55
2023-04-07T19:13:30.891Z,6.57
2023-04-07T19:16:35.957Z,6.58
2023-04-07T19:19:40.642Z,6.50
2023-04-07T19:22:44.886Z,6.52
2023-04-07T19:25:49.160Z,6.54
2023-04-07T19:28:53.517Z,6.52
2023-04-07T19:31:57.922Z,6.56
2023-04-07T19:35:02.476Z,6.50
2023-04-07T19:38:08.045Z,6.51
2023-04-07T19:41:12.500Z,6.57
2023-04-07T19:44:18.198Z,6.53
2023-04-07T19:47:23.268Z,6.52
2023-04-07T19:50:28.309Z,6.54
2023-04-07T19:53:32.748Z,6.53
2023-04-07T19:56:37.921Z,6.53
2023-04-07T19:59:42.946Z,6.52
2023-04-07T20:02:47.760Z,6.43
2023-04-07T20:05:53.188Z,6.45
2023-04-07T20:08:58.626Z,6.50
2023-04-07T20:12:02.916Z,6.52
2023-04-07T20:15:08.216Z,6.52
2023-04-07T20:18:13.149Z,6.49
2023-04-07T20:21:17.510Z,6.34
2023-04-07T20:24:23.136Z,6.33
2023-04-07T20:27:27.285Z,6.37
2023-04-07T20:30:32.138Z,6.34
2023-04-07T20:33:36.488Z,6.41
2023-04-07T20:36:41.257Z,6.44
2023-04-07T20:39:45.369Z,6.45
2023-04-07T20:42:49.604Z,6.44
2023-04-07T20:45:54.031Z,6.44
2023-04-07T20:48:58.534Z,6.44
2023-04-07T20:52:03.940Z,6.48
2023-04-07T20:55:09.114Z,6.46
2023-04-07T20:58:13.825Z,6.46
2023-04-07T21:01:18.162Z,6.48
2023-04-07T21:04:24.539Z,6.46
2023-04-07T21:07:29.345Z,6.38
2023-04-07T21:10:33.875Z,6.32
2023-04-07T21:13:38.401Z,6.35
2023-04-07T21:16:43.554Z,6.36
2023-04-07T21:19:48.002Z,6.36
2023-04-07T21:22:52.192Z,6.31
2023-04-07T21:26:01.453Z,6.23
2023-04-07T21:29:06.064Z,6.24
2023-04-07T21:32:10.617Z,6.24
2023-04-07T21:35:15.285Z,6.22
2023-04-07T21:38:19.374Z,6.19
2023-04-07T21:41:23.630Z,6.20
2023-04-07T21:44:27.793Z,6.16
2023-04-07T21:47:32.209Z,6.21
2023-04-07T21:50:37.160Z,6.17
2023-04-07T21:53:41.472Z,6.16
2023-04-07T21:56:48.960Z,6.13
2023-04-07T21:59:53.533Z,6.15
2023-04-07T22:02:58.090Z,6.19
2023-04-07T22:06:02.656Z,6.16
2023-04-07T22:09:08.316Z,6.15
2023-04-07T22:12:12.816Z,6.19
2023-04-07T22:15:17.450Z,6.20
2023-04-07T22:18:22.264Z,6.22
2023-04-07T22:21:27.326Z,6.22
2023-04-07T22:24:31.710Z,6.28
2023-04-07T22:27:35.958Z,6.27
2023-04-07T22:30:40.866Z,6.25
2023-04-07T22:33:45.421Z,6.25
2023-04-07T22:36:49.877Z,6.26
2023-04-07T22:39:54.010Z,6.27
2023-04-07T22:42:58.765Z,6.32
2023-04-07T22:46:03.892Z,6.29
2023-04-07T22:49:08.245Z,6.31
2023-04-07T22:52:12.757Z,6.33
2023-04-07T22:55:17.040Z,6.30
2023-04-07T22:58:21.662Z,6.33
2023-04-07T23:01:26.357Z,6.33
2023-04-07T23:04:31.020Z,6.36
2023-04-07T23:07:35.648Z,6.34
2023-04-07T23:10:40.351Z,6.35
2023-04-07T23:13:44.711Z,6.44
2023-04-07T23:16:49.148Z,6.40
2023-04-07T23:19:53.445Z,6.42
2023-04-07T23:22:57.735Z,6.44
2023-04-07T23:26:02.202Z,6.46
2023-04-07T23:29:06.613Z,6.41
2023-04-07T23:32:11.356Z,6.41
2023-04-07T23:35:15.910Z,6.40
2023-04-07T23:38:20.057Z,6.36
2023-04-07T23:41:24.702Z,6.40
2023-04-07T23:44:29.123Z,6.45
2023-04-07T23:47:33.390Z,6.47
2023-04-07T23:50:37.880Z,6.45
2023-04-07T23:53:41.955Z,6.45
2023-04-07T23:56:46.929Z,6.45
2023-04-07T23:59:51.708Z,6.45
